Time;durP1;ratioP1;P1;durP2;ratioP2;P2;SDS_P1;SDS_P2;PMS_P1;PMS_P2;Temp;Humidity;BMP_temperature;BMP_pressure;BME280_temperature;BME280_humidity;BME280_pressure;Samples;Min_cycle;Max_cycle;Signal;HPM_P1;HPM_P2
2023/01/09 00:00:20;;;;;;;1.48;0.10;;;7.50;99.90;;;;;;6304269;22;20377;-79
2023/01/09 00:02:45;;;;;;;0.90;0.10;;;7.60;99.90;;;;;;6276753;22;20427;-80
2023/01/09 00:05:13;;;;;;;1.45;0.20;;;7.60;99.90;;;;;;6250213;22;20011;-79
2023/01/09 00:07:39;;;;;;;2.08;0.30;;;7.60;99.90;;;;;;6251335;22;20031;-79
2023/01/09 00:10:06;;;;;;;2.47;0.20;;;7.50;99.90;;;;;;6275995;22;20003;-79
2023/01/09 00:12:32;;;;;;;0.90;0.20;;;7.50;99.90;;;;;;6251067;22;20033;-80
2023/01/09 00:14:58;;;;;;;1.00;0.20;;;7.50;99.90;;;;;;6303364;22;20035;-79
2023/01/09 00:17:24;;;;;;;1.23;0.22;;;7.50;99.90;;;;;;6304209;22;20395;-80
2023/01/09 00:19:49;;;;;;;1.33;0.30;;;7.50;99.90;;;;;;6275777;22;20007;-79
2023/01/09 00:22:15;;;;;;;0.73;0.20;;;7.40;99.90;;;;;;6276776;22;20325;-79
2023/01/09 00:24:41;;;;;;;0.63;0.10;;;7.40;99.90;;;;;;6304343;22;20492;-78
2023/01/09 00:27:07;;;;;;;0.70;0.20;;;7.30;99.90;;;;;;6276280;22;20082;-78
2023/01/09 00:29:32;;;;;;;1.95;0.10;;;7.30;99.90;;;;;;6303211;22;20011;-79
2023/01/09 00:31:58;;;;;;;0.77;0.10;;;7.30;99.90;;;;;;6304051;22;20007;-79
2023/01/09 00:34:25;;;;;;;0.20;0.00;;;7.20;99.90;;;;;;6276918;22;20003;-80
2023/01/09 00:36:54;;;;;;;0.28;0.00;;;7.20;99.90;;;;;;6276448;22;20007;-79
2023/01/09 00:39:21;;;;;;;0.35;0.00;;;7.20;99.90;;;;;;6302702;22;20010;-79
2023/01/09 00:41:51;;;;;;;0.32;0.00;;;7.10;99.90;;;;;;6304500;22;20014;-79
2023/01/09 00:44:38;;;;;;;0.30;0.00;;;7.10;99.90;;;;;;6276510;22;20439;-79
2023/01/09 00:47:12;;;;;;;0.20;0.00;;;7.00;99.90;;;;;;6294361;22;20011;-79
2023/01/09 00:49:38;;;;;;;0.47;0.10;;;7.00;99.90;;;;;;6276255;22;20005;-79
2023/01/09 00:52:06;;;;;;;0.35;0.00;;;6.90;99.90;;;;;;6250579;22;20098;-80
2023/01/09 00:54:32;;;;;;;0.90;0.10;;;6.80;99.90;;;;;;6250846;22;20011;-79
2023/01/09 00:56:58;;;;;;;1.88;0.20;;;6.80;99.90;;;;;;6301892;22;20344;-80
2023/01/09 00:59:26;;;;;;;0.68;0.17;;;6.80;99.90;;;;;;6276250;22;20149;-79
2023/01/09 01:01:51;;;;;;;0.20;0.10;;;6.80;99.90;;;;;;6276253;22;20321;-80
2023/01/09 01:09:45;;;;;;;0.45;0.10;;;6.60;99.90;;;;;;6275847;22;20015;-79
2023/01/09 01:12:11;;;;;;;0.40;0.10;;;6.50;99.90;;;;;;6303692;22;20007;-79
2023/01/09 01:14:37;;;;;;;0.90;0.10;;;6.50;99.90;;;;;;6303049;22;20003;-80
2023/01/09 01:17:04;;;;;;;0.38;0.10;;;6.40;99.90;;;;;;6302780;22;20440;-79
2023/01/09 01:19:30;;;;;;;0.30;0.10;;;6.40;99.90;;;;;;6250612;22;20007;-79
2023/01/09 01:21:56;;;;;;;0.52;0.10;;;6.30;99.90;;;;;;6250269;22;20419;-78
2023/01/09 01:24:22;;;;;;;0.50;0.10;;;6.20;99.90;;;;;;6303853;22;20450;-80
2023/01/09 01:26:47;;;;;;;1.40;0.15;;;6.20;99.90;;;;;;6302032;22;20035;-79
2023/01/09 01:29:13;;;;;;;1.52;0.17;;;6.20;99.90;;;;;;6250433;22;20011;-79
2023/01/09 01:31:39;;;;;;;0.95;0.10;;;6.10;99.90;;;;;;6301375;22;20007;-79
2023/01/09 01:34:05;;;;;;;0.57;0.13;;;6.00;99.90;;;;;;6275791;22;20003;-79
2023/01/09 01:36:31;;;;;;;1.48;0.20;;;6.10;99.90;;;;;;6276105;22;20015;-80
2023/01/09 01:38:57;;;;;;;0.82;0.10;;;6.00;99.90;;;;;;6303158;22;20463;-80
2023/01/09 01:41:28;;;;;;;0.43;0.13;;;6.00;99.90;;;;;;6276250;22;20003;-79
2023/01/09 01:43:55;;;;;;;1.17;0.30;;;6.00;99.90;;;;;;6249893;22;20048;-79
2023/01/09 01:46:21;;;;;;;0.63;0.10;;;5.90;99.90;;;;;;6249646;22;20136;-79
2023/01/09 01:48:51;;;;;;;0.50;0.20;;;5.90;99.90;;;;;;6275583;22;20452;-79
2023/01/09 01:51:20;;;;;;;0.95;0.20;;;5.80;99.90;;;;;;6303691;22;20015;-79
2023/01/09 01:53:50;;;;;;;1.15;0.20;;;5.80;99.90;;;;;;6275354;22;20004;-80
2023/01/09 01:56:25;;;;;;;0.40;0.10;;;5.70;99.90;;;;;;6276429;22;20041;-78
2023/01/09 01:59:00;;;;;;;0.50;0.10;;;5.70;99.90;;;;;;6249933;22;20007;-79
2023/01/09 02:01:28;;;;;;;0.47;0.10;;;5.60;99.90;;;;;;6275892;22;20007;-79
2023/01/09 02:03:55;;;;;;;0.80;0.10;;;5.60;99.90;;;;;;6275412;22;20007;-78
2023/01/09 02:06:21;;;;;;;0.30;0.10;;;5.50;99.90;;;;;;6250048;22;20082;-78
2023/01/09 02:08:48;;;;;;;0.40;0.10;;;5.60;99.90;;;;;;6275636;22;20009;-79
2023/01/09 02:11:18;;;;;;;0.50;0.10;;;5.50;99.90;;;;;;6275838;22;20007;-79
2023/01/09 02:13:44;;;;;;;1.38;0.10;;;5.60;99.90;;;;;;6275184;22;20007;-79
2023/01/09 02:16:25;;;;;;;0.82;0.10;;;5.50;99.90;;;;;;6275119;22;20065;-79
2023/01/09 02:19:32;;;;;;;0.80;0.20;;;5.50;99.90;;;;;;6275569;22;20011;-79
2023/01/09 02:21:57;;;;;;;0.50;0.15;;;5.40;99.90;;;;;;6302069;22;20470;-79
2023/01/09 02:24:58;;;;;;;1.52;0.25;;;5.40;99.90;;;;;;6275698;22;20019;-78
2023/01/09 02:27:51;;;;;;;1.08;0.20;;;5.40;99.90;;;;;;6275578;22;20007;-79
2023/01/09 02:30:34;;;;;;;0.75;0.20;;;5.30;99.90;;;;;;6275120;22;20012;-79
2023/01/09 02:33:20;;;;;;;0.85;0.10;;;5.30;99.90;;;;;;6302689;22;20169;-79
2023/01/09 02:35:59;;;;;;;0.50;0.10;;;5.20;99.90;;;;;;6275222;22;20019;-79
2023/01/09 02:38:49;;;;;;;0.40;0.10;;;5.20;99.90;;;;;;6275606;22;20007;-79
2023/01/09 02:41:37;;;;;;;1.08;0.10;;;5.20;99.90;;;;;;6250516;22;20015;-79
2023/01/09 02:44:42;;;;;;;1.05;0.10;;;5.10;99.90;;;;;;6274374;22;20004;-79
2023/01/09 02:47:14;;;;;;;0.52;0.10;;;5.10;99.90;;;;;;6152705;23;20013;-79
2023/01/09 02:49:45;;;;;;;0.40;0.10;;;5.10;99.90;;;;;;6128428;23;20008;-79
2023/01/09 02:52:35;;;;;;;1.20;0.20;;;5.00;99.90;;;;;;6152922;23;20406;-78
2023/01/09 02:55:24;;;;;;;0.80;0.20;;;5.10;99.90;;;;;;6177551;23;20023;-79
2023/01/09 02:58:17;;;;;;;0.85;0.20;;;5.10;99.90;;;;;;6128475;23;20458;-78
2023/01/09 03:01:07;;;;;;;2.47;0.20;;;5.00;99.90;;;;;;6152811;23;20005;-78
2023/01/09 03:03:35;;;;;;;2.08;0.20;;;5.00;99.90;;;;;;6147627;23;20009;-79
2023/01/09 03:06:18;;;;;;;1.95;0.20;;;5.10;99.90;;;;;;6153136;23;20447;-79
2023/01/09 03:08:49;;;;;;;0.80;0.10;;;5.10;99.90;;;;;;6178753;23;20104;-79
2023/01/09 03:11:14;;;;;;;;;;;5.10;99.90;;;;;;6129275;23;20545;-78
2023/01/09 03:13:57;;;;;;;0.88;0.10;;;5.00;99.90;;;;;;6152336;23;19991;-79
2023/01/09 03:16:35;;;;;;;0.40;0.03;;;5.00;99.90;;;;;;6129619;23;20345;-79
2023/01/09 03:19:05;;;;;;;0.60;0.10;;;5.00;99.90;;;;;;6272681;22;20011;-78
2023/01/09 03:21:31;;;;;;;2.58;0.20;;;5.00;99.90;;;;;;6251915;22;20035;-79
2023/01/09 03:24:00;;;;;;;0.52;0.10;;;4.90;99.90;;;;;;6276790;22;20512;-79
2023/01/09 03:26:27;;;;;;;0.80;0.20;;;5.00;99.90;;;;;;6277628;22;20034;-79
2023/01/09 03:28:54;;;;;;;1.40;0.10;;;5.00;99.90;;;;;;6251555;22;20034;-79
2023/01/09 03:31:20;;;;;;;1.42;0.30;;;4.90;99.90;;;;;;6277132;22;20064;-79
2023/01/09 03:33:46;;;;;;;1.00;0.30;;;4.90;99.90;;;;;;6277234;22;20034;-79
2023/01/09 03:36:13;;;;;;;0.98;0.30;;;4.90;99.90;;;;;;6251751;22;20015;-78
2023/01/09 03:38:39;;;;;;;1.73;0.50;;;4.90;99.90;;;;;;6251385;22;20010;-78
2023/01/09 03:41:05;;;;;;;1.20;0.40;;;4.80;99.90;;;;;;6304111;22;20004;-79
2023/01/09 03:43:31;;;;;;;0.60;0.20;;;4.80;99.90;;;;;;6275966;22;20007;-79
2023/01/09 03:45:57;;;;;;;1.17;0.30;;;4.80;99.90;;;;;;6303956;22;20082;-79
2023/01/09 03:48:23;;;;;;;0.88;0.20;;;4.80;99.90;;;;;;6277049;22;20035;-79
2023/01/09 03:50:52;;;;;;;1.10;0.40;;;4.80;99.90;;;;;;6276588;22;20061;-79
2023/01/09 03:53:19;;;;;;;2.00;0.20;;;4.80;99.90;;;;;;6277274;22;20382;-79
2023/01/09 03:55:50;;;;;;;0.60;0.20;;;4.80;99.90;;;;;;6276784;22;20038;-79
2023/01/09 03:58:17;;;;;;;1.50;0.10;;;4.70;99.90;;;;;;6276915;22;20061;-79
2023/01/09 04:00:44;;;;;;;1.67;0.15;;;4.80;99.90;;;;;;6251579;22;20010;-78
2023/01/09 04:03:11;;;;;;;1.00;0.20;;;4.70;99.90;;;;;;6304168;22;20015;-79
2023/01/09 04:05:36;;;;;;;1.63;0.20;;;4.70;99.90;;;;;;6303916;22;20082;-79
2023/01/09 04:08:02;;;;;;;0.73;0.10;;;4.70;99.90;;;;;;6304189;22;20081;-79
2023/01/09 04:10:28;;;;;;;0.90;0.10;;;4.60;99.90;;;;;;6277104;22;20003;-79
2023/01/09 04:12:54;;;;;;;0.73;0.10;;;4.70;99.90;;;;;;6276157;22;20007;-79
2023/01/09 04:15:19;;;;;;;1.55;0.17;;;4.60;99.90;;;;;;6276492;22;20086;-79
2023/01/09 04:17:45;;;;;;;1.17;0.10;;;4.70;99.90;;;;;;6304254;22;20572;-79
2023/01/09 04:20:11;;;;;;;0.75;0.10;;;4.60;99.90;;;;;;6276081;22;20008;-79
2023/01/09 04:22:37;;;;;;;1.80;0.30;;;4.60;99.90;;;;;;6302824;22;20451;-79
2023/01/09 04:25:03;;;;;;;1.95;1.00;;;4.60;99.90;;;;;;6304037;22;20021;-79
2023/01/09 04:27:29;;;;;;;1.77;0.30;;;4.60;99.90;;;;;;6303552;22;20001;-79
2023/01/09 04:29:55;;;;;;;1.77;0.25;;;4.60;99.90;;;;;;6276423;22;20379;-78
2023/01/09 04:32:21;;;;;;;1.15;0.20;;;4.60;99.90;;;;;;6276980;22;20009;-78
2023/01/09 04:34:46;;;;;;;1.63;0.20;;;4.70;99.90;;;;;;6304387;22;20015;-79
2023/01/09 04:37:12;;;;;;;3.42;0.30;;;4.60;99.90;;;;;;6275873;22;20018;-79
2023/01/09 04:39:40;;;;;;;1.52;0.30;;;4.70;99.90;;;;;;6302176;22;20424;-77
2023/01/09 04:42:06;;;;;;;2.35;0.30;;;4.60;99.90;;;;;;6275905;22;20015;-79
2023/01/09 04:44:31;;;;;;;1.45;0.30;;;4.60;99.90;;;;;;6276797;22;20010;-80
2023/01/09 04:46:57;;;;;;;0.90;0.25;;;4.70;99.90;;;;;;6303483;22;20102;-81
2023/01/09 04:49:23;;;;;;;1.73;0.30;;;4.70;99.90;;;;;;6276536;22;20014;-80
2023/01/09 04:51:49;;;;;;;1.63;0.30;;;4.80;99.90;;;;;;6275893;22;19995;-78
2023/01/09 04:54:15;;;;;;;2.30;0.25;;;4.80;99.90;;;;;;6276465;22;20022;-78
2023/01/09 04:56:41;;;;;;;2.08;0.20;;;4.80;99.90;;;;;;6249864;22;20019;-78
2023/01/09 04:59:07;;;;;;;1.15;0.30;;;4.90;99.90;;;;;;6276114;22;20481;-78
2023/01/09 05:01:33;;;;;;;2.35;0.20;;;4.90;99.90;;;;;;6276522;22;19999;-78
2023/01/09 05:03:59;;;;;;;1.20;0.20;;;4.90;99.90;;;;;;6276274;22;20064;-78
2023/01/09 05:06:25;;;;;;;0.93;0.30;;;5.00;99.90;;;;;;6276156;22;19999;-78
2023/01/09 05:08:51;;;;;;;2.58;0.30;;;5.00;99.90;;;;;;6276356;22;20011;-78
2023/01/09 05:11:17;;;;;;;3.72;0.30;;;5.10;99.90;;;;;;6251445;22;20023;-78
2023/01/09 05:13:42;;;;;;;2.53;0.68;;;5.10;99.90;;;;;;6250665;22;20100;-79
2023/01/09 05:16:08;;;;;;;1.20;0.50;;;5.10;99.90;;;;;;6302944;22;20011;-79
2023/01/09 05:18:34;;;;;;;1.05;0.17;;;5.10;99.90;;;;;;6276506;22;20009;-80
2023/01/09 05:20:59;;;;;;;2.08;0.28;;;5.20;99.90;;;;;;6303287;22;20011;-79
2023/01/09 05:23:25;;;;;;;2.67;0.20;;;5.20;99.90;;;;;;6276316;22;20142;-79
2023/01/09 05:25:51;;;;;;;1.20;0.10;;;5.20;99.90;;;;;;6302105;22;20356;-80
2023/01/09 05:28:16;;;;;;;2.42;0.20;;;5.30;99.90;;;;;;6276669;22;20458;-79
2023/01/09 05:30:42;;;;;;;2.22;0.15;;;5.30;99.90;;;;;;6302229;22;19999;-79
2023/01/09 05:33:08;;;;;;;1.30;0.20;;;5.30;99.90;;;;;;6275797;22;20026;-80
2023/01/09 05:35:33;;;;;;;2.42;0.22;;;5.30;99.90;;;;;;6276075;22;20031;-79
2023/01/09 05:37:59;;;;;;;1.10;0.20;;;5.40;99.90;;;;;;6301624;22;20086;-79
2023/01/09 05:40:25;;;;;;;4.28;0.20;;;5.40;99.90;;;;;;6275947;22;20105;-79
2023/01/09 05:42:50;;;;;;;0.82;0.20;;;5.40;99.90;;;;;;6275571;22;20034;-79
2023/01/09 05:45:16;;;;;;;1.65;0.20;;;5.40;99.90;;;;;;6301837;22;20325;-79
2023/01/09 05:47:44;;;;;;;1.85;0.10;;;5.40;99.90;;;;;;6303213;22;20352;-79
2023/01/09 05:50:11;;;;;;;3.00;0.20;;;5.40;99.90;;;;;;6275546;22;20093;-79
2023/01/09 05:52:37;;;;;;;1.15;0.20;;;5.40;99.90;;;;;;6275392;22;20010;-80
2023/01/09 05:55:03;;;;;;;1.00;0.20;;;5.40;99.90;;;;;;6275532;22;20015;-79
2023/01/09 05:57:29;;;;;;;0.52;0.10;;;5.40;99.90;;;;;;6302150;22;20436;-79
2023/01/09 05:59:54;;;;;;;1.05;0.10;;;5.40;99.90;;;;;;6302920;22;20086;-79
2023/01/09 06:02:20;;;;;;;2.78;0.20;;;5.40;99.90;;;;;;6275859;22;20368;-79
2023/01/09 06:04:46;;;;;;;1.95;0.20;;;5.40;99.90;;;;;;6275264;22;20120;-79
2023/01/09 06:07:11;;;;;;;1.95;0.10;;;5.40;99.90;;;;;;6302365;22;20022;-80
2023/01/09 06:09:37;;;;;;;0.57;0.10;;;5.40;99.90;;;;;;6301775;22;20014;-79
2023/01/09 06:12:03;;;;;;;0.80;0.10;;;5.40;99.90;;;;;;6275592;22;19999;-79
2023/01/09 06:14:28;;;;;;;1.73;0.10;;;5.50;99.90;;;;;;6301829;22;19999;-80
2023/01/09 06:16:54;;;;;;;1.80;0.10;;;5.50;99.90;;;;;;6275195;22;20015;-81
2023/01/09 06:19:20;;;;;;;2.05;0.10;;;5.50;99.90;;;;;;6249879;22;20116;-80
2023/01/09 06:21:46;;;;;;;4.13;0.20;;;5.50;99.90;;;;;;6272711;22;20390;-81
2023/01/09 06:24:12;;;;;;;2.60;0.10;;;5.60;99.90;;;;;;6274609;22;20312;-81
2023/01/09 06:26:37;;;;;;;0.65;0.10;;;5.60;99.90;;;;;;6274787;22;20033;-80
2023/01/09 06:29:03;;;;;;;3.25;0.20;;;5.60;99.90;;;;;;6301074;22;20007;-79
2023/01/09 06:31:29;;;;;;;3.28;0.20;;;5.70;99.90;;;;;;6275388;22;20009;-80
2023/01/09 06:33:54;;;;;;;3.10;0.20;;;5.70;99.90;;;;;;6275348;22;20007;-80
2023/01/09 06:36:21;;;;;;;2.30;0.20;;;5.70;99.90;;;;;;6274454;22;20015;-80
2023/01/09 06:38:46;;;;;;;1.67;0.20;;;5.70;99.90;;;;;;6300931;22;20007;-80
2023/01/09 06:41:12;;;;;;;1.63;0.20;;;5.80;99.90;;;;;;6275458;22;20086;-80
2023/01/09 06:43:38;;;;;;;0.85;0.10;;;5.80;99.90;;;;;;6275539;22;20378;-79
2023/01/09 06:46:07;;;;;;;1.58;0.20;;;5.80;99.90;;;;;;6302059;22;20371;-80
2023/01/09 06:48:32;;;;;;;1.38;0.13;;;5.80;99.90;;;;;;6249357;22;20065;-81
2023/01/09 06:50:58;;;;;;;2.60;0.20;;;5.90;99.90;;;;;;6273478;22;20379;-79
2023/01/09 06:53:24;;;;;;;3.90;0.20;;;5.90;99.90;;;;;;6275485;22;20011;-79
2023/01/09 06:55:49;;;;;;;2.80;0.20;;;5.90;99.90;;;;;;6274941;22;20015;-80
2023/01/09 06:58:15;;;;;;;1.23;0.13;;;5.90;99.90;;;;;;6275050;22;20132;-79
2023/01/09 07:00:41;;;;;;;5.38;0.20;;;6.00;99.90;;;;;;6249617;22;20092;-81
2023/01/09 07:03:07;;;;;;;5.25;0.20;;;6.00;99.90;;;;;;6273710;22;20004;-79
2023/01/09 07:05:38;;;;;;;4.47;0.20;;;6.00;99.90;;;;;;6302371;22;20014;-79
2023/01/09 07:08:04;;;;;;;4.93;0.25;;;6.10;99.90;;;;;;6274966;22;20074;-80
2023/01/09 07:10:30;;;;;;;4.32;0.80;;;6.10;99.90;;;;;;6300904;22;20007;-79
2023/01/09 07:12:55;;;;;;;4.93;0.47;;;6.00;99.90;;;;;;6274713;22;20018;-83
2023/01/09 07:15:21;;;;;;;2.83;0.20;;;6.10;99.90;;;;;;6274106;22;20034;-80
2023/01/09 07:17:50;;;;;;;2.60;0.10;;;6.10;99.90;;;;;;6274788;22;20018;-79
2023/01/09 07:20:16;;;;;;;2.60;0.20;;;6.10;99.90;;;;;;6301950;22;20014;-79
2023/01/09 07:22:43;;;;;;;2.47;0.25;;;6.10;99.90;;;;;;6274386;22;20010;-79
2023/01/09 07:25:08;;;;;;;3.00;0.28;;;6.10;99.90;;;;;;6302139;22;20100;-79
2023/01/09 07:27:34;;;;;;;1.63;0.20;;;6.10;99.90;;;;;;6249285;22;20004;-79
2023/01/09 07:30:00;;;;;;;4.97;0.40;;;6.20;99.90;;;;;;6274587;22;20003;-80
2023/01/09 07:32:26;;;;;;;2.80;0.20;;;6.20;99.90;;;;;;6302101;22;20003;-80
2023/01/09 07:34:51;;;;;;;4.75;0.30;;;6.20;99.90;;;;;;6274358;22;20082;-80
2023/01/09 07:37:18;;;;;;;4.47;0.30;;;6.30;99.90;;;;;;6301182;22;20014;-80
2023/01/09 07:39:43;;;;;;;2.63;0.35;;;6.30;99.90;;;;;;6249508;22;20141;-79
2023/01/09 07:42:10;;;;;;;2.63;0.20;;;6.30;99.90;;;;;;6273762;22;20007;-79
2023/01/09 07:44:36;;;;;;;4.28;0.77;;;6.30;99.90;;;;;;6249499;22;20082;-79
2023/01/09 07:47:01;;;;;;;3.47;0.30;;;6.30;99.90;;;;;;6300167;22;20444;-80
2023/01/09 07:49:27;;;;;;;3.60;0.20;;;6.30;99.90;;;;;;6274336;22;20366;-79
2023/01/09 07:51:54;;;;;;;2.33;0.20;;;6.20;99.90;;;;;;6301974;22;20039;-80
2023/01/09 07:54:19;;;;;;;6.07;0.30;;;6.30;99.90;;;;;;6302244;22;19999;-79
2023/01/09 07:56:45;;;;;;;3.22;0.20;;;6.20;99.90;;;;;;6274275;22;20019;-79
2023/01/09 07:59:11;;;;;;;2.28;0.20;;;6.20;99.90;;;;;;6249238;22;20096;-80
2023/01/09 08:01:37;;;;;;;3.65;0.20;;;6.20;99.90;;;;;;6275105;22;20014;-80
2023/01/09 08:04:03;;;;;;;3.35;0.25;;;6.20;99.90;;;;;;6276302;22;20082;-80
2023/01/09 08:06:30;;;;;;;2.05;0.22;;;6.20;99.90;;;;;;6276655;22;20011;-80
2023/01/09 08:08:56;;;;;;;3.08;0.20;;;6.20;99.90;;;;;;6276448;22;19999;-80
2023/01/09 08:11:22;;;;;;;1.95;0.20;;;6.20;99.90;;;;;;6275932;22;20011;-80
2023/01/09 08:13:48;;;;;;;2.88;0.20;;;6.20;99.90;;;;;;6250455;22;20086;-80
2023/01/09 08:16:14;;;;;;;1.30;0.20;;;6.20;99.90;;;;;;6276351;22;20062;-80
2023/01/09 08:18:39;;;;;;;2.88;0.20;;;6.20;99.90;;;;;;6275759;22;20035;-80
2023/01/09 08:21:05;;;;;;;2.67;0.22;;;6.20;99.90;;;;;;6276405;22;20042;-80
2023/01/09 08:23:31;;;;;;;2.17;0.47;;;6.20;99.90;;;;;;6275582;22;20022;-80
2023/01/09 08:25:57;;;;;;;1.83;0.20;;;6.20;99.90;;;;;;6303047;22;20094;-81
2023/01/09 08:28:22;;;;;;;3.90;0.30;;;6.20;99.90;;;;;;6301694;22;20003;-80
2023/01/09 08:30:48;;;;;;;2.10;0.55;;;6.30;99.90;;;;;;6303528;22;20009;-80
2023/01/09 08:33:14;;;;;;;4.10;0.70;;;6.30;99.90;;;;;;6275828;22;20007;-79
2023/01/09 08:35:39;;;;;;;1.73;0.30;;;6.30;99.90;;;;;;6301542;22;20395;-79
2023/01/09 08:38:05;;;;;;;4.15;0.40;;;6.30;99.90;;;;;;6302843;22;20022;-79
2023/01/09 08:40:31;;;;;;;3.20;0.45;;;6.30;99.90;;;;;;6275761;22;20037;-80
2023/01/09 08:48:25;;;;;;;5.40;0.40;;;6.40;99.90;;;;;;6275151;22;20103;-79
2023/01/09 08:50:52;;;;;;;2.70;0.40;;;6.40;99.90;;;;;;6301553;22;20034;-79
2023/01/09 08:53:18;;;;;;;2.13;0.40;;;6.40;99.90;;;;;;6303402;22;20007;-80
2023/01/09 08:55:44;;;;;;;4.10;0.40;;;6.40;99.90;;;;;;6250325;22;20090;-79
2023/01/09 08:58:10;;;;;;;3.78;0.40;;;6.40;99.90;;;;;;6301033;22;20011;-80
2023/01/09 09:00:35;;;;;;;3.53;0.40;;;6.40;99.90;;;;;;6275695;22;20009;-80
2023/01/09 09:03:01;;;;;;;2.80;0.40;;;6.40;99.90;;;;;;6274818;22;20008;-79
2023/01/09 09:05:28;;;;;;;3.20;0.38;;;6.40;99.90;;;;;;6249733;22;20011;-78
2023/01/09 09:07:55;;;;;;;4.45;0.50;;;6.50;99.90;;;;;;6275326;22;20034;-79
2023/01/09 09:10:22;;;;;;;4.75;0.70;;;6.50;99.90;;;;;;6275641;22;20003;-79
2023/01/09 09:12:50;;;;;;;4.10;0.90;;;6.70;99.90;;;;;;6249346;22;20141;-78
2023/01/09 09:15:22;;;;;;;3.47;0.60;;;6.70;99.90;;;;;;6274196;22;20014;-79
2023/01/09 09:17:49;;;;;;;6.95;0.85;;;6.80;99.90;;;;;;6274150;22;20042;-80
2023/01/09 09:20:15;;;;;;;3.83;0.70;;;6.80;99.90;;;;;;6302348;22;20053;-79
2023/01/09 09:22:41;;;;;;;3.08;0.60;;;7.00;99.90;;;;;;6248944;22;20475;-78
2023/01/09 09:25:07;;;;;;;3.75;0.50;;;7.00;99.90;;;;;;6274063;22;20011;-80
2023/01/09 09:27:33;;;;;;;2.60;0.50;;;7.00;99.90;;;;;;6302510;22;20007;-79
2023/01/09 09:29:58;;;;;;;2.53;0.50;;;7.00;99.90;;;;;;6301428;22;20192;-80
2023/01/09 09:32:24;;;;;;;3.90;0.80;;;7.00;99.90;;;;;;6275445;22;20017;-78
2023/01/09 09:34:49;;;;;;;2.22;0.60;;;7.00;99.90;;;;;;6275020;22;20049;-78
2023/01/09 09:37:15;;;;;;;3.45;0.70;;;7.10;99.90;;;;;;6301272;22;20096;-79
2023/01/09 09:39:41;;;;;;;4.32;0.68;;;7.10;99.90;;;;;;6275143;22;20084;-79
2023/01/09 09:46:03;;;;;;;3.90;0.50;;;7.10;99.90;;;;;;6301378;22;20091;-79
2023/01/09 09:48:36;;;;;;;2.75;0.90;;;7.10;99.90;;;;;;6275222;22;20061;-79
2023/01/09 09:51:17;;;;;;;1.80;0.40;;;7.10;99.90;;;;;;6249504;22;20524;-79
2023/01/09 09:53:56;;;;;;;4.50;0.80;;;7.00;99.90;;;;;;6249228;22;19999;-80
2023/01/09 09:56:23;;;;;;;4.03;0.50;;;7.00;99.90;;;;;;6275816;22;20023;-79
2023/01/09 09:58:54;;;;;;;2.58;0.60;;;7.00;99.90;;;;;;6274494;22;20082;-79
2023/01/09 10:01:26;;;;;;;2.10;0.47;;;7.10;99.90;;;;;;6275373;22;20003;-79
2023/01/09 10:03:58;;;;;;;3.17;0.60;;;7.20;99.90;;;;;;6248912;22;20018;-79
2023/01/09 10:06:44;;;;;;;2.25;0.60;;;7.30;99.90;;;;;;6302790;22;20003;-77
2023/01/09 10:09:40;;;;;;;1.80;0.52;;;7.20;99.90;;;;;;6248879;22;20003;-80
2023/01/09 10:12:14;;;;;;;3.35;0.70;;;7.30;99.90;;;;;;6274657;22;20091;-80
2023/01/09 10:14:39;;;;;;;5.07;0.70;;;7.20;99.90;;;;;;6273631;22;20007;-80
2023/01/09 10:17:17;;;;;;;2.00;0.50;;;7.10;99.90;;;;;;6274689;22;20015;-79
2023/01/09 10:19:57;;;;;;;4.10;0.70;;;7.20;99.90;;;;;;6302462;22;20316;-79
2023/01/09 10:23:12;;;;;;;2.13;0.80;;;7.20;99.90;;;;;;6249752;22;20014;-80
2023/01/09 10:25:49;;;;;;;3.28;1.00;;;7.20;99.90;;;;;;6176868;23;20087;-79
2023/01/09 10:28:52;;;;;;;3.45;0.70;;;7.20;99.90;;;;;;6127558;23;20016;-80
2023/01/09 10:31:28;;;;;;;2.80;0.60;;;7.20;99.90;;;;;;6177695;23;20423;-78
2023/01/09 10:34:23;;;;;;;3.38;1.17;;;7.10;99.90;;;;;;6177119;23;20020;-80
2023/01/09 10:37:07;;;;;;;4.38;1.48;;;7.10;99.90;;;;;;6152492;23;20024;-80
2023/01/09 10:39:45;;;;;;;3.13;1.23;;;7.20;99.90;;;;;;6152864;23;20090;-79
2023/01/09 10:42:21;;;;;;;4.25;1.30;;;7.20;99.90;;;;;;6152417;23;20401;-79
2023/01/09 10:45:01;;;;;;;3.10;1.20;;;7.30;99.90;;;;;;6147364;23;20125;-79
2023/01/09 10:47:33;;;;;;;3.72;1.52;;;7.20;99.90;;;;;;6177340;23;20017;-79
2023/01/09 10:50:01;;;;;;;4.63;1.10;;;7.30;99.90;;;;;;6176795;23;20005;-81
2023/01/09 10:52:38;;;;;;;3.17;1.13;;;7.30;99.90;;;;;;6152497;23;20385;-79
2023/01/09 10:55:18;;;;;;;3.97;1.00;;;7.30;99.90;;;;;;6278558;22;20448;-79
2023/01/09 10:57:47;;;;;;;5.45;1.00;;;7.20;99.90;;;;;;6301903;22;20030;-79
2023/01/09 11:00:16;;;;;;;5.20;1.45;;;7.30;99.90;;;;;;6301631;22;20003;-79
2023/01/09 11:02:43;;;;;;;6.88;1.98;;;7.30;99.90;;;;;;6248894;22;20011;-80
2023/01/09 11:05:16;;;;;;;3.92;1.42;;;7.30;99.90;;;;;;6274146;22;20446;-79
2023/01/09 11:07:44;;;;;;;4.60;1.45;;;7.30;99.90;;;;;;6249436;22;20048;-79
2023/01/09 11:10:13;;;;;;;7.15;1.75;;;7.20;99.90;;;;;;6274596;22;20106;-80
2023/01/09 11:12:39;;;;;;;4.50;1.83;;;7.30;99.90;;;;;;6248267;22;20039;-80
2023/01/09 11:15:29;;;;;;;6.28;1.33;;;7.30;99.90;;;;;;6301198;22;20018;-79
2023/01/09 11:18:23;;;;;;;2.17;0.85;;;7.40;99.90;;;;;;6274509;22;20011;-79
2023/01/09 11:20:49;;;;;;;5.20;1.38;;;7.40;99.90;;;;;;6248257;22;20431;-79
2023/01/09 11:23:28;;;;;;;4.22;1.00;;;7.50;99.90;;;;;;6249171;22;20030;-78
2023/01/09 11:25:57;;;;;;;3.75;0.80;;;7.50;99.90;;;;;;6274252;22;20008;-80
2023/01/09 11:28:23;;;;;;;2.60;0.70;;;7.60;99.90;;;;;;6248961;22;20428;-79
2023/01/09 11:31:00;;;;;;;6.20;1.00;;;7.60;99.90;;;;;;6301768;22;20008;-79
2023/01/09 11:33:41;;;;;;;4.57;0.70;;;7.50;99.90;;;;;;6248871;22;20013;-79
2023/01/09 11:36:13;;;;;;;4.65;0.70;;;7.50;99.90;;;;;;6274047;22;20021;-78
2023/01/09 11:38:49;;;;;;;4.65;0.70;;;7.40;99.90;;;;;;6276658;22;20412;-81
2023/01/09 11:41:24;;;;;;;3.75;0.90;;;7.40;99.90;;;;;;6274914;22;20420;-80
2023/01/09 11:43:53;;;;;;;3.35;0.77;;;7.40;99.90;;;;;;6276418;22;20007;-80
2023/01/09 11:46:49;;;;;;;5.40;0.80;;;7.40;99.90;;;;;;6250293;22;20090;-80
2023/01/09 11:49:14;;;;;;;2.85;0.70;;;7.30;99.90;;;;;;6250720;22;20041;-80
2023/01/09 11:51:41;;;;;;;5.13;0.90;;;7.30;99.90;;;;;;6250549;22;20034;-79
2023/01/09 11:54:26;;;;;;;4.63;0.93;;;7.20;99.90;;;;;;6301131;22;20523;-79
2023/01/09 11:56:52;;;;;;;3.33;0.93;;;7.30;99.90;;;;;;6275310;22;20015;-78
2023/01/09 11:59:24;;;;;;;6.05;0.90;;;7.40;99.90;;;;;;6303419;22;20053;-79
2023/01/09 12:02:21;;;;;;;4.80;0.70;;;7.50;99.90;;;;;;6275671;22;20431;-79
2023/01/09 12:04:58;;;;;;;5.78;0.80;;;7.60;99.90;;;;;;6275906;22;20015;-80
2023/01/09 12:07:53;;;;;;;2.55;1.20;;;7.60;99.90;;;;;;6275663;22;20023;-79
2023/01/09 12:10:31;;;;;;;4.47;0.70;;;7.60;99.90;;;;;;6249444;22;20009;-79
2023/01/09 12:13:04;;;;;;;4.13;0.60;;;7.80;99.90;;;;;;6249755;22;20065;-80
2023/01/09 12:15:44;;;;;;;3.72;0.52;;;7.80;99.90;;;;;;6275481;22;19999;-79
2023/01/09 12:18:22;;;;;;;2.42;0.50;;;7.90;99.90;;;;;;6250014;22;20347;-79
2023/01/09 12:20:57;;;;;;;2.25;0.60;;;8.10;99.90;;;;;;6275754;22;20309;-79
2023/01/09 12:23:30;;;;;;;3.70;0.50;;;8.00;99.90;;;;;;6250014;22;20042;-80
2023/01/09 12:26:27;;;;;;;3.80;0.40;;;8.10;99.90;;;;;;6275015;22;20026;-78
2023/01/09 12:29:04;;;;;;;5.95;0.65;;;8.10;99.90;;;;;;6275466;22;20014;-80
2023/01/09 12:31:42;;;;;;;3.88;0.50;;;8.20;99.90;;;;;;6275791;22;20082;-80
2023/01/09 12:34:33;;;;;;;6.05;0.60;;;8.30;99.90;;;;;;6301098;22;20091;-77
2023/01/09 12:37:43;;;;;;;3.25;0.60;;;8.30;99.90;;;;;;6274733;22;20109;-80
2023/01/09 12:40:14;;;;;;;6.20;0.70;;;8.20;99.90;;;;;;6274992;22;20410;-80
2023/01/09 12:43:24;;;;;;;7.47;1.00;;;8.10;99.90;;;;;;6275879;22;20082;-81
2023/01/09 12:46:20;;;;;;;7.60;0.95;;;8.20;99.90;;;;;;6193301;22;20073;-82
2023/01/09 12:49:26;;;;;;;5.95;0.93;;;8.20;99.90;;;;;;6249172;22;20094;-82
2023/01/09 12:52:19;;;;;;;7.25;1.63;;;8.20;99.90;;;;;;6275265;22;20011;-81
2023/01/09 12:54:53;;;;;;;3.05;0.80;;;8.20;99.90;;;;;;6274868;22;20554;-83
2023/01/09 12:57:32;;;;;;;8.07;1.27;;;8.20;99.90;;;;;;6275950;22;20019;-81
2023/01/09 13:00:14;;;;;;;9.35;1.38;;;8.10;99.90;;;;;;6275250;22;20343;-81
2023/01/09 13:02:48;;;;;;;8.23;1.00;;;8.10;99.90;;;;;;6275475;22;20069;-80
2023/01/09 13:05:16;;;;;;;6.75;1.23;;;8.00;99.90;;;;;;6275181;22;20444;-81
2023/01/09 13:07:47;;;;;;;5.25;0.80;;;8.10;99.90;;;;;;6274757;22;20482;-81
2023/01/09 13:10:19;;;;;;;7.65;1.00;;;8.20;99.90;;;;;;6275302;22;20320;-79
2023/01/09 13:12:47;;;;;;;8.38;1.35;;;8.10;99.90;;;;;;6249849;22;20030;-80
2023/01/09 13:15:39;;;;;;;7.45;0.70;;;8.20;99.90;;;;;;6275191;22;20007;-79
2023/01/09 13:18:25;;;;;;;7.10;0.75;;;8.20;99.90;;;;;;6275507;22;20011;-80
2023/01/09 13:20:55;;;;;;;9.82;0.93;;;8.20;99.90;;;;;;6280884;22;20023;-80
2023/01/09 13:23:31;;;;;;;4.40;0.63;;;8.10;99.90;;;;;;6274604;22;20008;-81
2023/01/09 13:26:03;;;;;;;4.95;0.60;;;8.10;99.90;;;;;;6275100;22;20011;-81
2023/01/09 13:28:38;;;;;;;6.82;0.70;;;8.10;99.90;;;;;;6302628;22;20055;-82
2023/01/09 13:31:32;;;;;;;10.27;0.88;;;8.00;99.90;;;;;;6274712;22;20065;-81